createdAt,value
2022-10-11T00:02:05.550Z,90.17
2022-10-11T00:04:44.046Z,90.36
2022-10-11T00:07:15.468Z,90.59
2022-10-11T00:09:42.251Z,90.46
2022-10-11T00:12:15.800Z,90.51
2022-10-11T00:14:45.262Z,90.64
2022-10-11T00:17:11.847Z,90.63
2022-10-11T00:19:38.574Z,90.71
2022-10-11T00:22:05.671Z,90.59
2022-10-11T00:24:33.542Z,90.75
2022-10-11T00:27:04.260Z,90.72
2022-10-11T00:29:49.534Z,90.82
2022-10-11T00:32:35.266Z,90.63
2022-10-11T00:35:06.343Z,90.66
2022-10-11T00:37:58.842Z,90.63
2022-10-11T00:40:37.959Z,90.73
2022-10-11T00:43:17.118Z,90.72
2022-10-11T00:45:58.692Z,90.61
2022-10-11T00:49:18.386Z,90.63
2022-10-11T00:53:15.575Z,90.75
2022-10-11T00:55:56.723Z,90.86
2022-10-11T00:58:28.209Z,91.06
2022-10-11T01:01:12.108Z,91.16
2022-10-11T01:04:02.354Z,90.90
2022-10-11T01:06:36.985Z,91.06
2022-10-11T01:09:06.654Z,90.99
2022-10-11T01:11:37.618Z,90.94
2022-10-11T01:14:23.583Z,90.80
2022-10-11T01:17:22.358Z,90.89
2022-10-11T01:20:17.330Z,90.98
2022-10-11T01:22:52.815Z,91.05
2022-10-11T01:25:36.654Z,91.31
2022-10-11T01:28:21.929Z,91.27
2022-10-11T01:30:50.610Z,91.28
2022-10-11T01:33:26.180Z,91.34
2022-10-11T01:36:05.139Z,91.21
2022-10-11T01:38:38.581Z,91.14
2022-10-11T01:41:26.839Z,91.10
2022-10-11T01:43:59.043Z,91.22
2022-10-11T01:46:28.214Z,91.44
2022-10-11T01:48:58.362Z,91.31
2022-10-11T01:51:33.990Z,91.27
2022-10-11T01:54:15.663Z,91.50
2022-10-11T01:57:17.826Z,91.56
2022-10-11T01:59:59.997Z,91.39
2022-10-11T02:03:13.816Z,91.56
2022-10-11T02:06:04.234Z,91.59
2022-10-11T02:08:46.677Z,91.68
2022-10-11T02:11:22.274Z,91.36
2022-10-11T02:14:14.176Z,91.35
2022-10-11T02:16:45.754Z,91.49
2022-10-11T02:19:24.463Z,91.38
2022-10-11T02:22:04.047Z,91.27
2022-10-11T02:24:35.518Z,91.31
2022-10-11T02:27:04.761Z,91.25
2022-10-11T02:29:38.348Z,91.24
2022-10-11T02:32:07.830Z,91.18
2022-10-11T02:34:46.953Z,91.24
2022-10-11T02:37:19.038Z,91.00
2022-10-11T02:40:11.305Z,90.89
2022-10-11T02:42:50.837Z,90.85
2022-10-11T02:45:38.404Z,90.85
2022-10-11T02:48:07.011Z,90.73
2022-10-11T02:50:33.649Z,90.63
2022-10-11T02:53:03.879Z,90.54
2022-10-11T02:55:37.822Z,90.54
2022-10-11T02:58:04.523Z,90.39
2022-10-11T03:00:31.467Z,90.46
2022-10-11T03:02:58.412Z,90.50
2022-10-11T03:05:25.398Z,90.32
2022-10-11T03:08:17.506Z,90.40
2022-10-11T03:10:44.685Z,90.45
2022-10-11T03:13:23.350Z,90.41
2022-10-11T03:16:07.268Z,90.45
2022-10-11T03:22:01.174Z,90.37
2022-10-11T03:24:31.863Z,90.51
2022-10-11T03:27:00.709Z,90.45
2022-10-11T03:29:27.303Z,90.37
2022-10-11T03:31:55.059Z,90.47
2022-10-11T03:34:21.647Z,90.38
2022-10-11T03:36:48.248Z,90.26
2022-10-11T03:39:32.233Z,90.36
2022-10-11T03:42:22.185Z,90.13
2022-10-11T03:44:51.254Z,90.03
2022-10-11T03:47:18.116Z,90.11
2022-10-11T03:49:45.065Z,90.25
2022-10-11T03:52:18.988Z,90.16
2022-10-11T03:54:52.981Z,90.19
2022-10-11T03:57:19.845Z,90.32
2022-10-11T03:59:47.661Z,90.27
2022-10-11T04:02:24.217Z,90.31
2022-10-11T04:05:01.421Z,90.30
2022-10-11T04:07:30.214Z,90.20
2022-10-11T04:10:05.311Z,90.30
2022-10-11T04:12:34.402Z,90.10
2022-10-11T04:15:07.738Z,90.21
2022-10-11T04:17:46.497Z,90.21
2022-10-11T04:20:22.140Z,90.27
2022-10-11T04:22:49.291Z,90.27
2022-10-11T04:25:16.227Z,90.05
2022-10-11T04:27:42.844Z,90.05
2022-10-11T04:30:10.597Z,90.04
2022-10-11T04:32:37.190Z,89.94
2022-10-11T04:35:04.900Z,89.81
2022-10-11T04:37:36.495Z,89.89
2022-10-11T04:40:17.201Z,89.95
2022-10-11T04:42:44.253Z,89.89
2022-10-11T04:45:11.634Z,90.07
2022-10-11T04:48:02.058Z,90.05
2022-10-11T04:50:48.023Z,90.07
2022-10-11T04:53:28.163Z,90.13
2022-10-11T04:56:02.134Z,90.22
2022-10-11T04:58:40.493Z,90.25
2022-10-11T05:01:08.793Z,90.27
2022-10-11T05:03:36.212Z,90.27
2022-10-11T05:06:05.869Z,90.21
2022-10-11T05:08:50.657Z,90.15
2022-10-11T05:11:18.191Z,90.22
2022-10-11T05:13:52.758Z,90.20
2022-10-11T05:16:19.576Z,90.34
2022-10-11T05:18:46.177Z,90.29
2022-10-11T05:21:18.744Z,90.28
2022-10-11T05:23:49.853Z,90.28
2022-10-11T05:26:30.797Z,90.36
2022-10-11T05:28:57.773Z,90.35
2022-10-11T05:31:24.729Z,90.26
2022-10-11T05:33:56.314Z,90.20
2022-10-11T05:36:23.356Z,90.11
2022-10-11T05:39:12.367Z,89.97
2022-10-11T05:42:14.296Z,89.83
2022-10-11T05:44:48.247Z,89.75
2022-10-11T05:47:15.434Z,89.56
2022-10-11T05:50:22.015Z,89.37
2022-10-11T05:52:54.251Z,89.09
2022-10-11T05:55:50.754Z,88.83
2022-10-11T05:58:58.694Z,88.74
2022-10-11T06:02:52.272Z,88.62
2022-10-11T06:06:10.720Z,88.44
2022-10-11T06:08:54.639Z,88.43
2022-10-11T06:11:26.794Z,88.16
2022-10-11T06:13:58.327Z,87.93
2022-10-11T06:16:29.410Z,87.60
2022-10-11T06:18:58.932Z,87.41
2022-10-11T06:21:25.770Z,87.43
2022-10-11T06:23:56.870Z,87.29
2022-10-11T06:27:01.954Z,87.13
2022-10-11T06:29:29.075Z,86.85
2022-10-11T06:32:00.876Z,86.89
2022-10-11T06:35:14.473Z,87.08
2022-10-11T06:37:41.529Z,86.99
2022-10-11T06:40:11.213Z,86.73
2022-10-11T06:43:00.730Z,86.41
2022-10-11T06:46:13.996Z,86.43
2022-10-11T06:53:59.228Z,86.06
2022-10-11T06:56:48.405Z,85.70
2022-10-11T06:59:38.412Z,85.43
2022-10-11T07:02:31.115Z,85.39
2022-10-11T07:05:06.465Z,85.13
2022-10-11T07:10:42.759Z,84.34
2022-10-11T07:13:16.973Z,84.34
2022-10-11T07:15:44.007Z,84.23
2022-10-11T07:18:10.559Z,83.71
2022-10-11T07:20:37.246Z,83.29
2022-10-11T07:23:24.474Z,83.50
2022-10-11T07:25:54.334Z,83.32
2022-10-11T07:28:23.306Z,83.25
2022-10-11T07:31:07.575Z,82.97
2022-10-11T07:33:37.074Z,82.85
2022-10-11T07:36:08.450Z,82.59
2022-10-11T07:48:52.506Z,82.45
2022-10-11T08:07:37.991Z,82.45
2022-10-11T08:08:59.297Z,80.54
2022-10-11T08:11:40.855Z,79.71
2022-10-11T09:28:34.221Z,69.27
2022-10-11T09:49:52.485Z,65.21
2022-10-11T10:23:50.898Z,63.53
2022-10-11T10:51:10.270Z,63.27
2022-10-11T10:54:39.756Z,64.11
2022-10-11T11:06:19.923Z,66.69
2022-10-11T11:18:25.380Z,67.75
2022-10-11T11:37:19.449Z,68.01
2022-10-11T11:58:09.321Z,66.58
2022-10-11T12:02:34.161Z,66.82
2022-10-11T12:17:27.205Z,65.54
2022-10-11T12:20:18.281Z,65.54
2022-10-11T12:22:53.840Z,65.89
2022-10-11T12:26:53.361Z,66.30
2022-10-11T12:29:50.726Z,66.61
2022-10-11T12:38:09.613Z,65.98
2022-10-11T12:41:41.620Z,65.67
2022-10-11T12:45:21.099Z,65.63
2022-10-11T12:48:52.996Z,65.47
2022-10-11T12:52:55.899Z,65.08
2022-10-11T12:56:28.048Z,64.98
2022-10-11T12:59:06.370Z,64.73
2022-10-11T13:02:49.625Z,64.49
2022-10-11T13:05:45.897Z,63.15
2022-10-11T13:08:49.639Z,63.18
2022-10-11T13:12:03.777Z,63.20
2022-10-11T13:19:01.293Z,63.48
2022-10-11T13:21:46.796Z,62.91
2022-10-11T13:25:54.863Z,63.04
2022-10-11T13:27:28.517Z,62.94
2022-10-11T13:37:48.089Z,62.99
2022-10-11T13:40:30.602Z,62.85
2022-10-11T13:44:07.587Z,63.11
2022-10-11T13:47:05.388Z,63.61
2022-10-11T13:49:40.596Z,63.62
2022-10-11T13:56:49.332Z,64.10
2022-10-11T13:59:31.276Z,64.18
2022-10-11T14:02:01.319Z,64.54
2022-10-11T14:04:41.951Z,64.58
2022-10-11T14:07:40.549Z,64.78
2022-10-11T14:10:24.890Z,64.79
2022-10-11T14:17:51.778Z,65.23
2022-10-11T14:20:54.608Z,65.64
2022-10-11T14:23:48.117Z,65.95
2022-10-11T14:26:22.672Z,66.11
2022-10-11T14:30:12.922Z,66.40
2022-10-11T14:32:12.789Z,66.71
2022-10-11T14:34:42.340Z,66.87
2022-10-11T14:37:27.407Z,66.99
2022-10-11T14:39:54.037Z,67.29
2022-10-11T14:42:23.841Z,67.43
2022-10-11T14:44:57.711Z,67.59
2022-10-11T14:47:42.963Z,67.81
2022-10-11T14:50:19.360Z,68.06
2022-10-11T14:52:53.755Z,68.09
2022-10-11T14:55:32.742Z,68.41
2022-10-11T14:58:16.962Z,68.66
2022-10-11T15:00:49.679Z,68.93
2022-10-11T15:03:24.839Z,68.99
2022-10-11T15:07:12.514Z,69.04
2022-10-11T15:10:34.719Z,69.17
2022-10-11T15:12:58.821Z,69.25
2022-10-11T15:16:08.428Z,69.59
2022-10-11T15:18:46.839Z,69.47
2022-10-11T15:21:38.845Z,69.50
2022-10-11T15:24:29.253Z,69.65
2022-10-11T15:27:25.039Z,69.80
2022-10-11T15:30:02.015Z,70.00
2022-10-11T15:32:46.573Z,70.09
2022-10-11T15:35:28.051Z,70.18
2022-10-11T15:38:56.877Z,70.39
2022-10-11T15:41:33.512Z,70.76
2022-10-11T15:44:09.913Z,71.03
2022-10-11T15:47:01.440Z,71.14
2022-10-11T15:49:36.965Z,71.37
2022-10-11T15:52:19.272Z,71.53
2022-10-11T15:55:07.134Z,71.62
2022-10-11T15:57:39.200Z,72.08
2022-10-11T16:00:17.538Z,72.45
2022-10-11T16:05:52.855Z,72.77
2022-10-11T16:08:25.363Z,72.88
2022-10-11T16:10:57.110Z,73.19
2022-10-11T16:20:35.125Z,73.99
2022-10-11T16:23:38.787Z,74.05
2022-10-11T16:26:12.755Z,74.17
2022-10-11T16:26:53.424Z,73.83
2022-10-11T18:09:13.828Z,76.80
2022-10-11T18:11:48.789Z,76.80
2022-10-11T18:15:07.783Z,76.83
2022-10-11T18:17:49.760Z,77.30
2022-10-11T18:20:30.479Z,77.44
2022-10-11T18:22:57.511Z,77.86
2022-10-11T18:25:59.909Z,78.30
2022-10-11T18:31:59.390Z,78.95
2022-10-11T18:34:59.819Z,79.10
2022-10-11T18:39:02.781Z,79.53
2022-10-11T18:41:29.380Z,78.43
2022-10-11T18:41:39.410Z,79.89
2022-10-11T18:44:34.695Z,80.29
2022-10-11T18:47:13.753Z,80.28
2022-10-11T18:50:19.968Z,80.27
2022-10-11T18:52:53.259Z,80.54
2022-10-11T18:55:32.530Z,80.62
2022-10-11T18:58:11.318Z,80.48
2022-10-11T19:01:07.286Z,80.47
2022-10-11T19:03:37.955Z,80.39
2022-10-11T19:06:21.350Z,80.54
2022-10-11T19:09:14.089Z,80.67
2022-10-11T19:12:14.227Z,80.76
2022-10-11T19:14:46.650Z,80.94
2022-10-11T19:17:14.249Z,80.75
2022-10-11T19:19:59.240Z,80.88
2022-10-11T19:22:26.017Z,80.95
2022-10-11T19:24:52.972Z,80.96
2022-10-11T19:32:02.892Z,81.03
2022-10-11T19:34:41.032Z,81.13
2022-10-11T19:37:12.798Z,81.09
2022-10-11T19:39:40.117Z,81.05
2022-10-11T19:42:08.346Z,81.14
2022-10-11T19:44:39.594Z,81.16
2022-10-11T19:47:11.496Z,81.08
2022-10-11T19:49:37.997Z,81.00
2022-10-11T19:52:25.959Z,81.08
2022-10-11T19:55:04.983Z,81.29
2022-10-11T19:57:42.264Z,81.29
2022-10-11T20:01:22.530Z,81.35
2022-10-11T20:04:33.152Z,81.40
2022-10-11T20:08:28.415Z,81.51
2022-10-11T20:10:59.025Z,81.51
2022-10-11T20:13:47.459Z,81.29
2022-10-11T20:16:53.675Z,81.20
2022-10-11T20:20:50.979Z,81.06
2022-10-11T20:23:35.186Z,80.86
2022-10-11T20:26:31.974Z,80.80
2022-10-11T20:28:58.750Z,80.74
2022-10-11T20:31:46.247Z,80.48
2022-10-11T20:34:31.765Z,80.36
2022-10-11T20:41:47.276Z,80.06
2022-10-11T20:44:48.743Z,80.01
2022-10-11T20:47:26.340Z,80.04
2022-10-11T20:49:53.142Z,79.91
2022-10-11T20:53:25.413Z,79.69
2022-10-11T21:00:49.774Z,79.05
